EDDK/CGN METAR and TAF weather

Enter ICAO airport designator
Station Type Date Time Source
EDDK METAR 2020/08/11 18:20 UTC NOAA

EDDK 111820Z 21014KT 9999 -TSRA BKN060CB 24/19 Q1015 BECMG NSW


Station Type Date Time Source
EDDK Decoded METAR 2020/08/11 18:20 UTC NOAA

Koeln / Bonn, Germany (EDDK) 50-52N 007-10E 100M
Aug 11, 2020 - 02:20 PM EDT / 2020.08.11 1820 UTC
Wind: from the SSW (210 degrees) at 16 MPH (14 KT):0
Visibility: greater than 7 mile(s):0
Sky conditions: mostly cloudy
Weather: light rain with thunder; Cumulonimbus clouds observed
Temperature: 75 F (24 C)
Dew Point: 66 F (19 C)
Relative Humidity: 73%
Pressure (altimeter): 29.97 in. Hg (1015 hPa)
ob: EDDK 111820Z 21014KT 9999 -TSRA BKN060CB 24/19 Q1015 BECMG NSW
cycle: 18

Station Type Date Time Source
EDDK TAF 2020/08/11 18:27 UTC NOAA

TAF EDDK 111700Z 1118/1224 08008KT CAVOK PROB30
TEMPO 1119/1122 TSRA SCT050CB
BECMG 1121/1123 13003KT
BECMG 1206/1208 13009KT PROB40
TEMPO 1212/1221 20015G35KT TSRA SCT050CB
BECMG 1214/1217 11004KT

Example: see airport list